Time;durP1;ratioP1;P1;durP2;ratioP2;P2;SDS_P1;SDS_P2;PMS_P1;PMS_P2;Temp;Humidity;BMP_temperature;BMP_pressure;BME280_temperature;BME280_humidity;BME280_pressure;Samples;Min_cycle;Max_cycle;Signal;HPM_P1;HPM_P2
2021/11/21 00:01:26;;;;;;;15.00;5.93;;;8.40;97.50;;;;;;4957623;28;20561;-67
2021/11/21 00:03:51;;;;;;;10.15;5.65;;;8.40;97.30;;;;;;4963149;28;20063;-66
2021/11/21 00:06:18;;;;;;;8.57;5.03;;;8.40;97.20;;;;;;4956645;28;20031;-66
2021/11/21 00:08:44;;;;;;;11.73;5.78;;;8.40;97.30;;;;;;4961084;28;20490;-66
2021/11/21 00:11:10;;;;;;;10.82;5.70;;;8.40;97.20;;;;;;4958478;28;20157;-66
2021/11/21 00:13:35;;;;;;;11.52;6.35;;;8.40;97.30;;;;;;4964494;28;20561;-66
2021/11/21 00:16:01;;;;;;;12.93;5.78;;;8.40;97.40;;;;;;4952628;28;20042;-66
2021/11/21 00:18:27;;;;;;;11.27;6.32;;;8.40;97.60;;;;;;4957746;28;20030;-66
2021/11/21 00:20:52;;;;;;;11.77;6.75;;;8.40;97.70;;;;;;4954335;28;20146;-66
2021/11/21 00:23:21;;;;;;;12.93;7.97;;;8.40;97.80;;;;;;4961457;28;20034;-66
2021/11/21 00:25:47;;;;;;;15.00;7.65;;;8.40;97.90;;;;;;4957988;28;20389;-66
2021/11/21 00:28:12;;;;;;;12.90;7.75;;;8.40;98.00;;;;;;4955230;28;20039;-66
2021/11/21 00:30:38;;;;;;;16.98;8.13;;;8.40;98.00;;;;;;4955657;28;20053;-66
2021/11/21 00:33:04;;;;;;;14.27;8.25;;;8.40;98.00;;;;;;4952165;28;20046;-66
2021/11/21 00:35:30;;;;;;;18.38;9.25;;;8.40;98.00;;;;;;4960446;28;20035;-66
2021/11/21 00:37:56;;;;;;;16.92;8.75;;;8.40;97.90;;;;;;4961366;28;20103;-66
2021/11/21 00:40:21;;;;;;;15.07;8.15;;;8.40;97.90;;;;;;4959127;28;20027;-66
2021/11/21 00:42:48;;;;;;;18.30;8.68;;;8.40;97.80;;;;;;4948036;28;20100;-66
2021/11/21 00:45:14;;;;;;;13.98;8.07;;;8.40;97.80;;;;;;4960364;28;20058;-66
2021/11/21 00:47:41;;;;;;;17.08;8.00;;;8.40;97.90;;;;;;4962886;28;20070;-66
2021/11/21 00:50:08;;;;;;;16.00;8.18;;;8.40;97.90;;;;;;4961198;28;20410;-66
2021/11/21 00:52:35;;;;;;;11.38;6.70;;;8.40;98.00;;;;;;4951137;28;20023;-66
2021/11/21 00:55:16;;;;;;;12.52;7.68;;;8.30;98.00;;;;;;4959397;28;20027;-66
2021/11/21 00:57:43;;;;;;;12.20;7.28;;;8.40;98.00;;;;;;4958371;28;20030;-66
2021/11/21 01:00:16;;;;;;;12.90;6.88;;;8.30;98.00;;;;;;4960069;28;20126;-66
2021/11/21 01:02:43;;;;;;;14.27;7.75;;;8.40;98.00;;;;;;4957364;28;20035;-66
2021/11/21 01:05:10;;;;;;;12.55;7.60;;;8.30;97.90;;;;;;4961662;28;20030;-66
2021/11/21 01:07:39;;;;;;;12.63;7.57;;;8.40;98.00;;;;;;4959110;28;20050;-66
2021/11/21 01:10:08;;;;;;;16.88;7.55;;;8.40;98.10;;;;;;4956238;28;20405;-66
2021/11/21 01:12:34;;;;;;;13.90;7.60;;;8.30;98.10;;;;;;4959376;28;20023;-66
2021/11/21 01:15:00;;;;;;;12.48;7.63;;;8.30;98.20;;;;;;4961793;28;20182;-66
2021/11/21 01:17:26;;;;;;;16.05;8.00;;;8.30;98.20;;;;;;4958620;28;20504;-66
2021/11/21 01:19:51;;;;;;;16.52;8.57;;;8.30;98.30;;;;;;4961795;28;20195;-66
2021/11/21 01:22:17;;;;;;;13.75;7.55;;;8.30;98.30;;;;;;4957626;28;20039;-66
2021/11/21 01:24:42;;;;;;;16.02;8.57;;;8.30;98.30;;;;;;4952053;28;20035;-66
2021/11/21 01:27:08;;;;;;;16.52;9.18;;;8.30;98.30;;;;;;4961017;28;20050;-66
2021/11/21 01:29:34;;;;;;;17.42;9.93;;;8.30;98.30;;;;;;4959510;28;20443;-66
2021/11/21 01:32:00;;;;;;;17.35;9.13;;;8.30;98.40;;;;;;4957136;28;20115;-66
2021/11/21 01:34:26;;;;;;;15.57;9.60;;;8.30;98.40;;;;;;4954980;28;20142;-66
2021/11/21 01:36:51;;;;;;;17.23;9.85;;;8.30;98.50;;;;;;4960700;28;20038;-66
2021/11/21 01:39:17;;;;;;;16.70;10.63;;;8.30;98.40;;;;;;4957637;28;20039;-65
2021/11/21 01:41:43;;;;;;;17.35;10.82;;;8.30;98.40;;;;;;4953109;28;20477;-66
2021/11/21 01:44:10;;;;;;;19.73;10.65;;;8.30;98.40;;;;;;4956788;28;20532;-66
2021/11/21 01:46:39;;;;;;;16.33;10.77;;;8.30;98.40;;;;;;4956756;28;20406;-66
2021/11/21 01:49:07;;;;;;;17.48;12.02;;;8.30;98.30;;;;;;4949505;28;20031;-66
2021/11/21 01:51:32;;;;;;;17.80;11.40;;;8.40;98.30;;;;;;4955977;28;20387;-66
2021/11/21 01:53:58;;;;;;;22.35;12.50;;;8.40;98.30;;;;;;4945480;28;20059;-66
2021/11/21 01:56:26;;;;;;;20.98;12.60;;;8.40;98.30;;;;;;4952698;28;20023;-66
2021/11/21 01:58:55;;;;;;;16.95;12.07;;;8.40;98.20;;;;;;4948667;28;20060;-66
2021/11/21 02:01:22;;;;;;;19.52;11.27;;;8.40;98.20;;;;;;4949558;28;20445;-66
2021/11/21 02:03:48;;;;;;;18.10;11.67;;;8.40;98.20;;;;;;4948765;28;20023;-66
2021/11/21 02:06:13;;;;;;;17.88;12.02;;;8.40;98.20;;;;;;4958055;28;20253;-66
2021/11/21 02:08:40;;;;;;;17.92;12.10;;;8.40;98.20;;;;;;4955762;28;20104;-66
2021/11/21 02:11:06;;;;;;;18.65;11.82;;;8.40;98.10;;;;;;4956835;28;20109;-66
2021/11/21 02:13:32;;;;;;;18.88;11.55;;;8.40;98.10;;;;;;4961377;28;20041;-66
2021/11/21 02:15:58;;;;;;;18.15;11.93;;;8.40;98.10;;;;;;4954878;28;20110;-66
2021/11/21 02:18:24;;;;;;;17.90;9.90;;;8.40;98.10;;;;;;4955836;28;20113;-66
2021/11/21 02:20:52;;;;;;;19.25;11.40;;;8.40;98.00;;;;;;4961118;28;20034;-67
2021/11/21 02:23:19;;;;;;;17.33;10.25;;;8.40;98.00;;;;;;4960700;28;20098;-66
2021/11/21 02:25:44;;;;;;;15.45;10.57;;;8.40;98.10;;;;;;4957708;28;20121;-69
2021/11/21 02:28:10;;;;;;;19.20;10.43;;;8.40;98.20;;;;;;4962195;28;20110;-66
2021/11/21 02:30:36;;;;;;;16.13;10.50;;;8.40;98.30;;;;;;4955262;28;20106;-66
2021/11/21 02:33:06;;;;;;;17.80;10.93;;;8.40;98.30;;;;;;4956716;28;20026;-66
2021/11/21 02:35:32;;;;;;;16.58;9.88;;;8.40;98.40;;;;;;4962255;28;20041;-66
2021/11/21 02:37:57;;;;;;;19.58;11.20;;;8.40;98.50;;;;;;4965006;28;20117;-66
2021/11/21 02:40:23;;;;;;;19.33;11.25;;;8.40;98.60;;;;;;4960819;28;20452;-66
2021/11/21 02:42:48;;;;;;;16.27;10.70;;;8.40;98.60;;;;;;4965832;28;20425;-66
2021/11/21 02:45:17;;;;;;;14.95;10.50;;;8.40;98.60;;;;;;4949132;28;20027;-66
2021/11/21 02:47:43;;;;;;;18.98;12.15;;;8.40;98.60;;;;;;4961039;28;20039;-66
2021/11/21 02:50:22;;;;;;;17.77;11.82;;;8.40;98.60;;;;;;4960693;28;20548;-66
2021/11/21 02:52:48;;;;;;;18.33;11.57;;;8.30;98.60;;;;;;4963911;28;20605;-66
2021/11/21 02:55:14;;;;;;;17.15;10.48;;;8.30;98.60;;;;;;4958886;28;20129;-66
2021/11/21 02:57:40;;;;;;;20.73;12.43;;;8.30;98.60;;;;;;4953827;28;20567;-66
2021/11/21 03:00:09;;;;;;;23.55;12.80;;;8.30;98.60;;;;;;4962365;28;20274;-66
2021/11/21 03:02:39;;;;;;;21.05;12.40;;;8.30;98.60;;;;;;4952459;28;20054;-66
2021/11/21 03:05:05;;;;;;;21.35;13.05;;;8.40;98.60;;;;;;4963112;28;20122;-66
2021/11/21 03:07:30;;;;;;;21.73;13.75;;;8.40;98.50;;;;;;4958165;28;20585;-67
2021/11/21 03:09:56;;;;;;;23.05;13.68;;;8.40;98.50;;;;;;4951216;28;20031;-66
2021/11/21 03:12:23;;;;;;;20.45;11.90;;;8.40;98.50;;;;;;4956274;28;20051;-66
2021/11/21 03:14:50;;;;;;;19.33;13.45;;;8.40;98.50;;;;;;4958473;28;20031;-66
2021/11/21 03:17:17;;;;;;;18.35;12.68;;;8.40;98.40;;;;;;4963204;28;20093;-66
2021/11/21 03:19:42;;;;;;;21.45;14.43;;;8.40;98.50;;;;;;4963220;28;22398;-66
2021/11/21 03:22:08;;;;;;;27.55;14.77;;;8.30;98.60;;;;;;4963735;28;20035;-66
2021/11/21 03:24:34;;;;;;;22.65;13.68;;;8.30;98.90;;;;;;4957007;28;20394;-66
2021/11/21 03:27:00;;;;;;;24.67;14.68;;;8.30;99.10;;;;;;4962653;28;20286;-67
2021/11/21 03:29:25;;;;;;;23.55;14.88;;;8.30;99.20;;;;;;4967637;28;20023;-66
2021/11/21 03:31:51;;;;;;;22.70;14.68;;;8.30;99.20;;;;;;4965614;28;20119;-66
2021/11/21 03:34:17;;;;;;;28.40;14.93;;;8.20;99.40;;;;;;4968040;28;20037;-66
2021/11/21 03:36:42;;;;;;;24.98;16.27;;;8.20;99.50;;;;;;4964715;28;20038;-67
2021/11/21 03:39:08;;;;;;;27.30;15.20;;;8.20;99.50;;;;;;4963082;28;20603;-66
2021/11/21 03:41:36;;;;;;;27.08;15.43;;;8.20;99.50;;;;;;4963447;28;20034;-66
2021/11/21 03:44:02;;;;;;;27.80;15.35;;;8.20;99.60;;;;;;4966670;28;20506;-66
2021/11/21 03:46:28;;;;;;;28.65;16.33;;;8.20;99.60;;;;;;4964893;28;20027;-66
2021/11/21 03:51:21;;;;;;;26.85;16.40;;;8.20;99.70;;;;;;4989469;28;20054;-65
2021/11/21 03:53:47;;;;;;;27.98;16.80;;;8.20;99.70;;;;;;4982683;28;20049;-64
2021/11/21 03:56:13;;;;;;;28.42;15.95;;;8.20;99.70;;;;;;4966625;28;20182;-64
2021/11/21 03:58:38;;;;;;;28.98;16.08;;;8.20;99.80;;;;;;4975616;28;20432;-65
2021/11/21 04:01:05;;;;;;;30.67;15.75;;;8.20;99.80;;;;;;4974967;28;20034;-64
2021/11/21 04:03:30;;;;;;;32.20;17.38;;;8.20;99.90;;;;;;4976963;28;20026;-64
2021/11/21 04:05:56;;;;;;;33.17;16.92;;;8.20;99.90;;;;;;4976053;28;20035;-65
2021/11/21 04:08:21;;;;;;;34.33;17.05;;;8.20;99.90;;;;;;4982374;28;20022;-65
2021/11/21 04:10:47;;;;;;;29.80;15.63;;;8.20;99.90;;;;;;4975110;28;20033;-64
2021/11/21 04:13:13;;;;;;;29.85;15.98;;;8.20;99.90;;;;;;4967326;28;20034;-64
2021/11/21 04:15:39;;;;;;;28.30;15.85;;;8.20;99.90;;;;;;4964009;28;20454;-64
2021/11/21 04:18:05;;;;;;;30.85;15.90;;;8.20;99.90;;;;;;4969681;28;20140;-64
2021/11/21 04:20:30;;;;;;;25.88;16.08;;;8.20;99.90;;;;;;4965223;28;20023;-64
2021/11/21 04:22:56;;;;;;;31.13;16.30;;;8.20;99.90;;;;;;4978045;28;20569;-65
2021/11/21 04:25:22;;;;;;;29.17;15.40;;;8.20;99.90;;;;;;4975674;28;20038;-65
2021/11/21 04:27:48;;;;;;;27.80;15.75;;;8.20;99.90;;;;;;4969269;28;20030;-65
2021/11/21 04:30:15;;;;;;;25.33;13.93;;;8.20;99.90;;;;;;4991327;28;20026;-65
2021/11/21 04:32:42;;;;;;;24.85;14.35;;;8.20;99.90;;;;;;4969221;28;20126;-65
2021/11/21 04:35:11;;;;;;;28.30;15.55;;;8.20;99.90;;;;;;4978065;28;20050;-65
2021/11/21 04:37:37;;;;;;;27.02;15.10;;;8.20;99.90;;;;;;4972735;28;20472;-65
2021/11/21 04:40:05;;;;;;;26.45;13.88;;;8.20;99.90;;;;;;4968328;28;20034;-65
2021/11/21 04:42:31;;;;;;;25.92;13.85;;;8.20;99.90;;;;;;4971735;28;20576;-65
2021/11/21 04:44:57;;;;;;;21.60;12.35;;;8.20;99.90;;;;;;4979132;28;20030;-64
2021/11/21 04:47:22;;;;;;;27.58;14.18;;;8.20;99.90;;;;;;4977828;28;20394;-65
2021/11/21 04:49:48;;;;;;;22.77;12.85;;;8.20;99.90;;;;;;4974503;28;20339;-65
2021/11/21 04:52:13;;;;;;;21.85;12.52;;;8.20;99.90;;;;;;4975002;28;20146;-65
2021/11/21 04:54:39;;;;;;;13.13;7.10;;;8.20;99.90;;;;;;4980392;28;20089;-64
2021/11/21 04:57:05;;;;;;;15.05;7.97;;;8.10;99.90;;;;;;4975315;28;20037;-65
2021/11/21 04:59:31;;;;;;;9.75;4.68;;;8.10;99.90;;;;;;4977299;28;20034;-65
2021/11/21 05:01:58;;;;;;;9.95;3.63;;;8.00;99.90;;;;;;4973497;28;20362;-65
2021/11/21 05:04:23;;;;;;;7.47;3.47;;;8.00;99.90;;;;;;4976261;28;20069;-64
2021/11/21 05:06:49;;;;;;;7.90;2.53;;;8.00;99.90;;;;;;4970188;28;20065;-65
2021/11/21 05:09:14;;;;;;;5.68;2.40;;;8.00;99.90;;;;;;4959737;28;20125;-65
2021/11/21 05:11:40;;;;;;;4.78;2.30;;;8.00;99.90;;;;;;4979286;28;20117;-64
2021/11/21 05:14:05;;;;;;;7.85;3.30;;;8.00;99.90;;;;;;4965730;28;20058;-64
2021/11/21 05:16:35;;;;;;;10.65;5.20;;;8.00;99.90;;;;;;4966281;28;20061;-65
2021/11/21 05:19:03;;;;;;;13.02;5.85;;;8.10;99.90;;;;;;4973968;28;20141;-65
2021/11/21 05:21:29;;;;;;;16.05;6.43;;;8.10;99.90;;;;;;4966440;28;20042;-66
2021/11/21 05:23:54;;;;;;;15.52;7.65;;;8.10;99.90;;;;;;4980537;28;20503;-65
2021/11/21 05:26:23;;;;;;;19.10;8.15;;;8.10;99.90;;;;;;4967559;28;20491;-65
2021/11/21 05:28:48;;;;;;;20.08;9.32;;;8.10;99.90;;;;;;4967528;28;20068;-65
2021/11/21 05:31:14;;;;;;;20.35;8.77;;;8.10;99.90;;;;;;4969569;28;20030;-65
2021/11/21 05:33:39;;;;;;;19.15;8.55;;;8.10;99.90;;;;;;4974041;28;20063;-66
2021/11/21 05:36:05;;;;;;;17.02;7.95;;;8.10;99.90;;;;;;4961122;28;20097;-66
2021/11/21 05:38:31;;;;;;;17.80;8.55;;;8.10;99.90;;;;;;4969549;28;20109;-65
2021/11/21 05:40:56;;;;;;;18.02;8.35;;;8.10;99.90;;;;;;4969656;28;20035;-67
2021/11/21 05:43:22;;;;;;;16.10;7.72;;;8.10;99.90;;;;;;4977550;28;20126;-66
2021/11/21 05:45:47;;;;;;;19.35;8.30;;;8.10;99.90;;;;;;4968916;28;20046;-67
2021/11/21 05:48:13;;;;;;;15.85;7.32;;;8.10;99.90;;;;;;4977827;28;20026;-68
2021/11/21 05:50:38;;;;;;;15.05;6.97;;;8.10;99.90;;;;;;4969167;28;20453;-67
2021/11/21 05:53:04;;;;;;;17.45;6.85;;;8.10;99.90;;;;;;4971627;28;20279;-67
2021/11/21 05:55:29;;;;;;;15.88;7.15;;;8.10;99.90;;;;;;4966814;28;20031;-65
2021/11/21 05:57:55;;;;;;;14.10;6.40;;;8.10;99.90;;;;;;4972549;28;20046;-65
2021/11/21 06:00:23;;;;;;;17.40;7.07;;;8.00;99.90;;;;;;4970852;28;20490;-66
2021/11/21 06:02:49;;;;;;;17.50;6.68;;;8.00;99.90;;;;;;4978361;28;20121;-66
2021/11/21 06:05:15;;;;;;;14.93;6.80;;;8.00;99.90;;;;;;4975744;28;20114;-66
2021/11/21 06:07:41;;;;;;;17.33;6.78;;;8.00;99.90;;;;;;4986785;28;20546;-66
2021/11/21 06:10:08;;;;;;;21.77;7.22;;;8.10;99.90;;;;;;4972396;28;20034;-66
2021/11/21 06:12:34;;;;;;;16.13;6.22;;;8.10;99.90;;;;;;4969436;28;20057;-66
2021/11/21 06:14:59;;;;;;;17.63;7.20;;;8.10;99.90;;;;;;4979392;28;20038;-66
2021/11/21 06:17:25;;;;;;;20.23;6.97;;;8.00;99.90;;;;;;4967137;28;20043;-66
2021/11/21 06:19:52;;;;;;;20.73;7.38;;;8.00;99.90;;;;;;4974176;28;20104;-66
2021/11/21 06:22:18;;;;;;;18.83;7.35;;;8.00;99.90;;;;;;4968628;28;20350;-67
2021/11/21 06:24:45;;;;;;;17.77;7.57;;;8.10;99.90;;;;;;4971803;28;20030;-66
2021/11/21 06:27:11;;;;;;;19.45;8.00;;;8.00;99.90;;;;;;4969646;28;20030;-67
2021/11/21 06:29:37;;;;;;;21.40;8.10;;;8.00;99.90;;;;;;4970822;28;20050;-66
2021/11/21 06:32:03;;;;;;;18.38;7.25;;;8.00;99.90;;;;;;4975419;28;20279;-67
2021/11/21 06:34:28;;;;;;;20.23;7.90;;;8.10;99.90;;;;;;4970097;28;20031;-67
2021/11/21 06:36:54;;;;;;;20.67;7.80;;;8.10;99.90;;;;;;4977290;28;20376;-67
2021/11/21 06:39:20;;;;;;;19.60;7.88;;;8.00;99.90;;;;;;4965839;28;20196;-65
2021/11/21 06:41:45;;;;;;;17.02;6.72;;;8.00;99.90;;;;;;4965080;28;20106;-65
2021/11/21 06:44:11;;;;;;;19.65;6.68;;;8.10;99.90;;;;;;4975200;28;20118;-65
2021/11/21 06:46:38;;;;;;;16.95;6.53;;;8.10;99.90;;;;;;4963534;28;20082;-66
2021/11/21 06:49:04;;;;;;;16.40;6.30;;;8.00;99.90;;;;;;4977360;28;20878;-66
2021/11/21 06:51:30;;;;;;;15.30;5.55;;;8.00;99.90;;;;;;4965764;28;20031;-66
2021/11/21 06:53:56;;;;;;;15.90;5.07;;;8.00;99.90;;;;;;4974514;28;20405;-66
2021/11/21 06:56:23;;;;;;;15.25;6.00;;;8.00;99.90;;;;;;4972410;28;20117;-66
2021/11/21 06:58:48;;;;;;;13.32;5.97;;;8.00;99.90;;;;;;4971822;28;20045;-66
2021/11/21 07:01:14;;;;;;;14.48;5.95;;;8.00;99.90;;;;;;4961258;28;20035;-66
2021/11/21 07:03:40;;;;;;;12.30;4.90;;;8.00;99.90;;;;;;4973952;28;20027;-67
2021/11/21 07:06:06;;;;;;;12.13;4.38;;;7.90;99.90;;;;;;4981516;28;20292;-66
2021/11/21 07:08:31;;;;;;;11.43;4.40;;;7.80;99.90;;;;;;4978483;28;20027;-67
2021/11/21 07:10:57;;;;;;;11.50;4.88;;;7.90;99.90;;;;;;4972796;28;20472;-66
2021/11/21 07:13:23;;;;;;;9.48;4.65;;;7.90;99.90;;;;;;4987216;28;20022;-66
2021/11/21 07:15:49;;;;;;;12.88;5.25;;;7.90;99.90;;;;;;4978358;28;20158;-67
2021/11/21 07:18:15;;;;;;;22.60;5.85;;;7.90;99.90;;;;;;4978273;28;20382;-67
2021/11/21 07:20:41;;;;;;;18.48;5.80;;;7.90;99.90;;;;;;4978404;28;20039;-67
2021/11/21 07:23:07;;;;;;;11.82;5.15;;;7.90;99.90;;;;;;4982685;28;20046;-67
2021/11/21 07:25:32;;;;;;;12.35;5.85;;;7.90;99.90;;;;;;4970194;28;20022;-67
2021/11/21 07:27:58;;;;;;;12.95;5.50;;;7.90;99.90;;;;;;4971422;28;20287;-67
2021/11/21 07:30:24;;;;;;;17.73;6.22;;;7.90;99.90;;;;;;4978219;28;20060;-67
2021/11/21 07:32:51;;;;;;;19.00;6.40;;;7.90;99.90;;;;;;4976595;28;20588;-66
2021/11/21 07:35:18;;;;;;;15.98;6.13;;;7.90;99.90;;;;;;4974732;28;20478;-66
2021/11/21 07:37:45;;;;;;;17.40;6.15;;;8.00;99.90;;;;;;4977548;28;20268;-66
2021/11/21 07:40:12;;;;;;;15.73;6.28;;;8.00;99.90;;;;;;4975781;28;20058;-66
2021/11/21 07:42:38;;;;;;;14.15;6.00;;;8.00;99.90;;;;;;4976809;28;20038;-66
2021/11/21 07:45:06;;;;;;;13.20;5.53;;;8.00;99.90;;;;;;4974696;28;20969;-67
2021/11/21 07:47:32;;;;;;;17.88;5.75;;;8.00;99.90;;;;;;4972403;28;20027;-66
2021/11/21 07:49:58;;;;;;;16.55;6.18;;;8.00;99.90;;;;;;4973002;28;20480;-66
2021/11/21 07:52:25;;;;;;;17.30;6.40;;;8.00;99.90;;;;;;4984735;28;20411;-66
2021/11/21 07:54:51;;;;;;;24.40;6.28;;;8.00;99.90;;;;;;4973639;28;20035;-66
2021/11/21 07:57:17;;;;;;;13.40;5.25;;;8.00;99.90;;;;;;4971362;28;20084;-66
2021/11/21 07:59:42;;;;;;;14.20;5.47;;;8.00;99.90;;;;;;4972892;28;20042;-66
2021/11/21 08:02:08;;;;;;;18.08;5.57;;;8.00;99.90;;;;;;4979207;28;20038;-66
2021/11/21 08:04:33;;;;;;;14.05;5.30;;;8.00;99.90;;;;;;4972473;28;20637;-66
2021/11/21 08:06:59;;;;;;;15.75;5.10;;;7.90;99.90;;;;;;4969287;28;20078;-66
2021/11/21 08:09:25;;;;;;;17.35;4.78;;;7.90;99.90;;;;;;4961919;28;20451;-66
2021/11/21 08:11:50;;;;;;;16.95;5.13;;;7.90;99.90;;;;;;4971973;28;20088;-67
2021/11/21 08:14:16;;;;;;;11.02;4.80;;;7.90;99.90;;;;;;4965584;28;20030;-67
2021/11/21 08:16:42;;;;;;;14.30;5.35;;;7.90;99.90;;;;;;4970027;28;20030;-66
2021/11/21 08:19:10;;;;;;;14.55;4.85;;;7.90;99.90;;;;;;4966058;28;20033;-66
2021/11/21 08:21:35;;;;;;;14.85;4.65;;;7.90;99.90;;;;;;4972142;28;20315;-66
2021/11/21 08:24:01;;;;;;;15.05;4.90;;;8.00;99.90;;;;;;4986577;28;20497;-66
2021/11/21 08:26:27;;;;;;;13.43;4.55;;;8.00;99.90;;;;;;4967593;28;20413;-66
2021/11/21 08:28:52;;;;;;;11.80;4.45;;;8.00;99.90;;;;;;4964282;28;20027;-66
2021/11/21 08:31:18;;;;;;;13.18;4.13;;;8.00;99.90;;;;;;4970720;28;20488;-67
2021/11/21 08:33:43;;;;;;;12.45;3.70;;;8.00;99.90;;;;;;4953351;28;20031;-67
2021/11/21 08:36:09;;;;;;;17.23;4.13;;;8.00;99.90;;;;;;4964343;28;20027;-66
2021/11/21 08:38:34;;;;;;;12.00;3.80;;;8.00;99.90;;;;;;4974909;28;20052;-67
2021/11/21 08:41:00;;;;;;;18.48;4.13;;;8.00;99.90;;;;;;4961904;28;20053;-67
2021/11/21 08:43:25;;;;;;;12.02;3.20;;;8.10;99.90;;;;;;4968674;28;20039;-67
2021/11/21 08:45:51;;;;;;;19.98;3.72;;;8.10;99.90;;;;;;4967071;28;20057;-67
2021/11/21 08:48:16;;;;;;;10.57;3.22;;;8.10;99.90;;;;;;4969558;28;20078;-67
2021/11/21 08:50:42;;;;;;;16.08;4.03;;;8.10;99.80;;;;;;4970206;28;20125;-67
2021/11/21 08:53:08;;;;;;;18.67;3.75;;;8.20;99.90;;;;;;4971613;28;20101;-67
2021/11/21 08:55:33;;;;;;;11.80;3.65;;;8.20;99.80;;;;;;4954874;28;20058;-67
2021/11/21 08:57:59;;;;;;;20.20;3.88;;;8.30;99.80;;;;;;4962909;28;20042;-67
2021/11/21 09:00:25;;;;;;;11.98;3.33;;;8.30;99.80;;;;;;4959010;28;20053;-67
2021/11/21 09:02:51;;;;;;;14.98;3.78;;;8.40;99.80;;;;;;4963968;28;20089;-67
2021/11/21 09:05:17;;;;;;;13.73;3.38;;;8.40;99.70;;;;;;4970828;28;20122;-67
2021/11/21 09:07:44;;;;;;;9.32;3.08;;;8.40;99.70;;;;;;4962249;28;20496;-66
2021/11/21 09:10:16;;;;;;;11.32;2.97;;;8.40;99.60;;;;;;4962868;28;20026;-67
2021/11/21 09:12:43;;;;;;;12.05;2.78;;;8.40;99.60;;;;;;4969267;28;20245;-69
2021/11/21 09:15:10;;;;;;;11.32;3.00;;;8.30;99.40;;;;;;4962067;28;20035;-66
2021/11/21 09:17:36;;;;;;;15.60;3.03;;;8.30;99.30;;;;;;4959695;28;20078;-66
2021/11/21 09:20:03;;;;;;;10.20;2.88;;;8.30;99.40;;;;;;4966914;28;24880;-66
2021/11/21 09:22:28;;;;;;;9.80;2.97;;;8.30;99.20;;;;;;4959815;28;20043;-66
2021/11/21 09:24:54;;;;;;;17.75;3.70;;;8.30;99.20;;;;;;4965449;28;20105;-66
2021/11/21 09:27:19;;;;;;;12.70;2.45;;;8.30;99.20;;;;;;4967303;28;20257;-67
2021/11/21 09:29:45;;;;;;;14.00;2.55;;;8.20;99.10;;;;;;4965722;28;20389;-66
2021/11/21 09:32:12;;;;;;;11.65;2.35;;;8.10;99.00;;;;;;4970990;28;20045;-67
2021/11/21 09:34:38;;;;;;;11.77;2.08;;;8.10;98.90;;;;;;4968445;28;20825;-67
2021/11/21 09:37:05;;;;;;;10.93;2.40;;;8.10;98.80;;;;;;4967136;28;20140;-67
2021/11/21 09:39:31;;;;;;;13.40;1.95;;;8.10;98.70;;;;;;4963708;28;20034;-67
2021/11/21 09:41:56;;;;;;;12.13;1.88;;;8.10;98.60;;;;;;4975509;28;20493;-68
2021/11/21 09:44:24;;;;;;;14.73;2.15;;;8.10;98.70;;;;;;4972813;28;20073;-67
2021/11/21 09:46:49;;;;;;;12.07;2.30;;;8.10;98.40;;;;;;4959701;28;20050;-67
2021/11/21 09:49:16;;;;;;;19.30;2.95;;;8.20;98.10;;;;;;4987555;23;20133;-67
2021/11/21 09:51:42;;;;;;;10.82;1.95;;;;;;;;;;4973223;28;20378;-67
2021/11/21 09:54:07;;;;;;;9.98;2.13;;;8.40;97.30;;;;;;4976098;28;20033;-66
2021/11/21 09:56:33;;;;;;;11.55;1.58;;;8.40;96.50;;;;;;4973336;28;20031;-67
2021/11/21 09:58:58;;;;;;;7.85;1.48;;;8.50;96.70;;;;;;4965397;28;20092;-66
2021/11/21 10:01:41;;;;;;;8.35;1.63;;;8.50;96.60;;;;;;4970156;28;20041;-66
2021/11/21 10:04:10;;;;;;;12.27;1.75;;;8.50;96.50;;;;;;4973954;28;20193;-66
2021/11/21 10:06:45;;;;;;;10.23;1.77;;;8.50;96.70;;;;;;4968738;28;20023;-67
2021/11/21 10:09:13;;;;;;;10.63;1.98;;;8.50;96.70;;;;;;4970105;28;20386;-67
2021/11/21 10:11:59;;;;;;;8.57;2.00;;;8.50;96.90;;;;;;4972270;28;20035;-66
2021/11/21 10:14:25;;;;;;;10.75;1.83;;;8.50;96.60;;;;;;4977423;28;20136;-73
2021/11/21 10:16:51;;;;;;;9.77;1.50;;;8.50;96.10;;;;;;4968506;28;20062;-65
2021/11/21 10:19:17;;;;;;;9.07;1.67;;;8.60;96.00;;;;;;4970923;28;20106;-66
2021/11/21 10:21:50;;;;;;;12.55;1.95;;;8.60;95.90;;;;;;4977685;28;20026;-67
2021/11/21 10:24:21;;;;;;;11.60;1.45;;;8.60;95.60;;;;;;4973317;28;20385;-67
2021/11/21 10:27:01;;;;;;;8.38;1.77;;;8.60;95.80;;;;;;4971373;28;20124;-67
2021/11/21 10:29:34;;;;;;;10.68;1.58;;;8.70;95.60;;;;;;4973261;28;20019;-67
2021/11/21 10:32:02;;;;;;;6.18;1.77;;;8.80;95.40;;;;;;4979077;28;20392;-67
2021/11/21 10:34:28;;;;;;;9.05;1.50;;;8.90;95.40;;;;;;4986374;28;20597;-66
2021/11/21 10:36:55;;;;;;;8.95;1.40;;;8.90;95.20;;;;;;4972623;28;20026;-67
2021/11/21 10:39:26;;;;;;;7.38;1.55;;;8.90;94.90;;;;;;4979689;28;20022;-71
2021/11/21 10:41:56;;;;;;;7.97;1.50;;;8.90;94.90;;;;;;4978970;28;20104;-64
2021/11/21 10:44:21;;;;;;;7.63;1.58;;;8.80;94.00;;;;;;4977853;28;20029;-64
2021/11/21 10:46:48;;;;;;;9.52;1.67;;;8.80;94.20;;;;;;4967273;28;20026;-70
2021/11/21 10:49:24;;;;;;;9.88;1.38;;;8.70;94.50;;;;;;4975863;28;20512;-66
2021/11/21 10:51:58;;;;;;;10.80;2.35;;;8.70;94.60;;;;;;4977064;28;20443;-66
2021/11/21 10:54:28;;;;;;;14.10;1.63;;;8.70;94.90;;;;;;4977225;28;20022;-66
2021/11/21 10:56:56;;;;;;;7.20;1.75;;;8.70;94.50;;;;;;4972753;28;20050;-66
2021/11/21 10:59:47;;;;;;;7.97;1.42;;;8.80;95.10;;;;;;4982011;28;20474;-67
2021/11/21 11:02:25;;;;;;;11.40;1.58;;;8.90;95.30;;;;;;4971232;28;20038;-66
2021/11/21 11:05:02;;;;;;;9.77;1.63;;;9.00;94.90;;;;;;4980444;28;20513;-66
2021/11/21 11:07:31;;;;;;;12.55;2.22;;;9.10;94.40;;;;;;4980806;28;20385;-65
2021/11/21 11:09:57;;;;;;;6.28;1.45;;;9.30;94.00;;;;;;4963135;28;20105;-65
2021/11/21 11:12:24;;;;;;;10.02;1.65;;;9.50;92.70;;;;;;4957393;28;20033;-65
2021/11/21 11:14:53;;;;;;;10.80;1.85;;;9.50;92.10;;;;;;4973759;28;20216;-66
2021/11/21 11:17:19;;;;;;;14.90;2.00;;;9.50;91.90;;;;;;4981012;28;20401;-65
2021/11/21 11:19:45;;;;;;;12.10;1.60;;;9.60;91.30;;;;;;4971992;28;20042;-64
2021/11/21 11:22:11;;;;;;;10.82;2.03;;;9.80;90.80;;;;;;4980043;28;20124;-65
2021/11/21 11:24:41;;;;;;;13.48;1.52;;;9.90;89.50;;;;;;4971473;28;20073;-66
2021/11/21 11:27:23;;;;;;;9.05;1.25;;;10.10;89.20;;;;;;4972969;28;20492;-65
2021/11/21 11:29:50;;;;;;;7.80;1.23;;;10.20;90.10;;;;;;4977824;28;20026;-65
2021/11/21 11:32:35;;;;;;;8.10;1.40;;;10.30;88.60;;;;;;4980767;28;20065;-65
2021/11/21 11:35:01;;;;;;;7.75;1.60;;;10.40;87.80;;;;;;4978237;28;20034;-66
2021/11/21 11:37:48;;;;;;;11.60;1.75;;;10.40;87.60;;;;;;4971796;28;20152;-65
2021/11/21 11:40:25;;;;;;;9.73;1.35;;;10.30;87.50;;;;;;4974520;28;20110;-66
2021/11/21 11:42:51;;;;;;;10.15;1.88;;;9.90;87.70;;;;;;4980974;28;20556;-65
2021/11/21 11:45:17;;;;;;;12.13;1.65;;;9.60;87.90;;;;;;4971908;28;20849;-65
2021/11/21 11:47:43;;;;;;;7.32;1.63;;;9.60;88.60;;;;;;4976673;28;20378;-65
2021/11/21 11:50:42;;;;;;;8.93;1.30;;;9.60;87.80;;;;;;4970559;28;20484;-66
2021/11/21 11:53:08;;;;;;;7.70;1.45;;;9.60;88.00;;;;;;4974861;28;20054;-66
2021/11/21 11:55:33;;;;;;;12.23;2.03;;;9.60;87.50;;;;;;4971366;28;20057;-65
2021/11/21 11:57:59;;;;;;;6.25;1.58;;;9.60;88.20;;;;;;4975367;28;20438;-65
2021/11/21 12:00:31;;;;;;;9.23;1.73;;;9.90;87.10;;;;;;4971166;28;20031;-66
2021/11/21 12:02:59;;;;;;;7.13;1.55;;;9.80;86.60;;;;;;4979666;28;20038;-65
2021/11/21 12:05:30;;;;;;;11.85;1.65;;;9.70;86.80;;;;;;4982607;28;20178;-64
2021/11/21 12:08:16;;;;;;;8.10;1.63;;;9.80;87.50;;;;;;4982366;28;20481;-65
2021/11/21 12:10:50;;;;;;;11.25;1.50;;;9.80;86.10;;;;;;4969968;28;20041;-66
2021/11/21 12:13:26;;;;;;;8.30;1.65;;;10.10;85.40;;;;;;4977049;28;20406;-66
2021/11/21 12:16:01;;;;;;;13.75;1.60;;;10.10;83.80;;;;;;4976973;28;20110;-66
2021/11/21 12:18:56;;;;;;;7.80;1.55;;;10.20;84.50;;;;;;4963399;28;20027;-65
2021/11/21 12:21:50;;;;;;;7.68;1.23;;;10.10;85.70;;;;;;4977404;28;20037;-65
2021/11/21 12:24:23;;;;;;;9.05;1.25;;;9.80;85.80;;;;;;4980810;28;20042;-65
2021/11/21 12:26:49;;;;;;;7.28;1.42;;;9.60;87.20;;;;;;4967809;28;20780;-65
2021/11/21 12:29:15;;;;;;;6.82;1.13;;;9.40;87.30;;;;;;4976827;28;20030;-65
2021/11/21 12:31:46;;;;;;;12.20;1.52;;;9.50;87.60;;;;;;4974339;28;20415;-65
2021/11/21 12:34:39;;;;;;;7.65;1.10;;;9.70;86.20;;;;;;4977013;28;20204;-66
2021/11/21 12:37:25;;;;;;;10.00;1.30;;;9.90;85.00;;;;;;4976854;28;20034;-65
2021/11/21 12:39:56;;;;;;;8.05;1.30;;;10.10;84.60;;;;;;4973154;28;20046;-65
2021/11/21 12:42:28;;;;;;;8.38;1.27;;;10.30;84.10;;;;;;4975634;28;20027;-65
2021/11/21 12:45:07;;;;;;;7.70;1.13;;;10.30;85.30;;;;;;4970157;28;20043;-65
2021/11/21 12:47:34;;;;;;;6.47;1.27;;;10.10;87.00;;;;;;4979363;28;20514;-65
2021/11/21 12:49:59;;;;;;;8.20;1.33;;;9.60;89.10;;;;;;4977402;28;20085;-64